sensor_id;sensor_type;location;lat;lon;timestamp;pressure;altitude;pressure_sealevel;temperature;humidity
20009;BME280;10165;42.662;23.260;2023-05-23T00:01:37;94016.28;;;15.96;69.19
20009;BME280;10165;42.662;23.260;2023-05-23T00:04:04;94001.31;;;16.05;68.13
20009;BME280;10165;42.662;23.260;2023-05-23T00:06:31;93999.75;;;16.08;67.88
20009;BME280;10165;42.662;23.260;2023-05-23T00:08:58;93998.06;;;15.68;68.79
20009;BME280;10165;42.662;23.260;2023-05-23T00:11:28;93996.13;;;15.00;69.67
20009;BME280;10165;42.662;23.260;2023-05-23T00:13:57;93995.69;;;14.87;70.42
20009;BME280;10165;42.662;23.260;2023-05-23T00:16:27;93991.31;;;14.72;70.67
20009;BME280;10165;42.662;23.260;2023-05-23T00:18:53;93990.13;;;14.66;70.98
20009;BME280;10165;42.662;23.260;2023-05-23T00:21:23;93993.97;;;14.24;72.50
20009;BME280;10165;42.662;23.260;2023-05-23T00:23:50;94000.63;;;14.81;71.93
20009;BME280;10165;42.662;23.260;2023-05-23T00:26:16;93996.19;;;15.07;70.65
20009;BME280;10165;42.662;23.260;2023-05-23T00:28:45;93992.16;;;15.41;70.42
20009;BME280;10165;42.662;23.260;2023-05-23T00:31:12;93994.69;;;15.89;68.64
20009;BME280;10165;42.662;23.260;2023-05-23T00:33:39;93990.13;;;16.14;67.78
20009;BME280;10165;42.662;23.260;2023-05-23T00:36:05;93986.31;;;16.29;66.97
20009;BME280;10165;42.662;23.260;2023-05-23T00:38:32;93985.19;;;16.37;66.01
20009;BME280;10165;42.662;23.260;2023-05-23T00:41:00;93995.16;;;16.08;66.72
20009;BME280;10165;42.662;23.260;2023-05-23T00:43:27;93991.09;;;15.56;67.33
20009;BME280;10165;42.662;23.260;2023-05-23T00:45:54;93991.03;;;15.46;68.06
20009;BME280;10165;42.662;23.260;2023-05-23T00:48:21;93990.94;;;15.24;68.65
20009;BME280;10165;42.662;23.260;2023-05-23T00:50:48;93992.28;;;14.94;69.18
20009;BME280;10165;42.662;23.260;2023-05-23T00:53:15;93990.88;;;14.59;70.37
20009;BME280;10165;42.662;23.260;2023-05-23T00:55:43;93988.19;;;14.63;70.46
20009;BME280;10165;42.662;23.260;2023-05-23T00:58:10;93988.13;;;14.52;70.39
20009;BME280;10165;42.662;23.260;2023-05-23T01:00:38;93999.69;;;14.23;71.42
20009;BME280;10165;42.662;23.260;2023-05-23T01:03:05;94000.38;;;14.13;71.61
20009;BME280;10165;42.662;23.260;2023-05-23T01:05:32;93995.16;;;13.90;73.42
20009;BME280;10165;42.662;23.260;2023-05-23T01:07:59;93993.47;;;14.49;72.31
20009;BME280;10165;42.662;23.260;2023-05-23T01:10:30;93995.84;;;13.50;74.48
20009;BME280;10165;42.662;23.260;2023-05-23T01:18:25;93993.50;;;14.52;72.35
20009;BME280;10165;42.662;23.260;2023-05-23T01:20:56;93997.47;;;14.72;71.94
20009;BME280;10165;42.662;23.260;2023-05-23T01:29:21;94002.50;;;15.32;68.72
20009;BME280;10165;42.662;23.260;2023-05-23T01:31:52;93991.88;;;15.60;67.98
20009;BME280;10165;42.662;23.260;2023-05-23T01:34:20;93999.50;;;15.48;68.46
20009;BME280;10165;42.662;23.260;2023-05-23T01:36:53;93995.59;;;15.38;67.97
20009;BME280;10165;42.662;23.260;2023-05-23T01:39:23;93990.47;;;15.12;69.19
20009;BME280;10165;42.662;23.260;2023-05-23T01:41:50;93990.31;;;14.87;69.18
20009;BME280;10165;42.662;23.260;2023-05-23T01:44:19;93988.63;;;15.26;68.46
20009;BME280;10165;42.662;23.260;2023-05-23T01:46:47;93982.44;;;15.19;67.79
20009;BME280;10165;42.662;23.260;2023-05-23T01:49:15;93984.25;;;15.01;68.34
20009;BME280;10165;42.662;23.260;2023-05-23T01:51:42;93980.16;;;15.24;68.09
20009;BME280;10165;42.662;23.260;2023-05-23T01:54:09;93983.88;;;15.02;68.03
20009;BME280;10165;42.662;23.260;2023-05-23T01:56:37;93981.66;;;15.22;67.88
20009;BME280;10165;42.662;23.260;2023-05-23T01:59:04;93970.91;;;15.22;67.79
20009;BME280;10165;42.662;23.260;2023-05-23T02:01:30;93973.56;;;15.15;68.55
20009;BME280;10165;42.662;23.260;2023-05-23T02:03:57;93979.22;;;14.96;68.62
20009;BME280;10165;42.662;23.260;2023-05-23T02:06:24;93973.69;;;14.74;68.67
20009;BME280;10165;42.662;23.260;2023-05-23T02:08:51;93979.34;;;14.59;69.06
20009;BME280;10165;42.662;23.260;2023-05-23T02:11:18;93976.84;;;14.36;70.03
20009;BME280;10165;42.662;23.260;2023-05-23T02:13:44;93978.22;;;14.23;70.26
20009;BME280;10165;42.662;23.260;2023-05-23T02:16:11;93978.22;;;14.63;69.26
20009;BME280;10165;42.662;23.260;2023-05-23T02:18:39;93986.63;;;14.58;69.18
20009;BME280;10165;42.662;23.260;2023-05-23T02:21:06;93989.19;;;14.44;69.68
20009;BME280;10165;42.662;23.260;2023-05-23T02:23:32;93994.13;;;14.39;69.96
20009;BME280;10165;42.662;23.260;2023-05-23T02:25:59;93983.91;;;14.55;70.33
20009;BME280;10165;42.662;23.260;2023-05-23T02:28:26;93986.00;;;14.75;69.73
20009;BME280;10165;42.662;23.260;2023-05-23T02:30:53;93978.38;;;14.88;69.18
20009;BME280;10165;42.662;23.260;2023-05-23T02:33:19;93983.22;;;15.23;67.93
20009;BME280;10165;42.662;23.260;2023-05-23T02:35:47;93966.25;;;15.15;67.71
20009;BME280;10165;42.662;23.260;2023-05-23T02:38:16;93963.31;;;15.38;67.44
20009;BME280;10165;42.662;23.260;2023-05-23T02:40:43;93965.88;;;15.10;67.38
20009;BME280;10165;42.662;23.260;2023-05-23T02:43:09;93957.56;;;14.74;68.54
20009;BME280;10165;42.662;23.260;2023-05-23T02:45:36;93965.88;;;14.55;68.51
20009;BME280;10165;42.662;23.260;2023-05-23T02:48:03;93964.47;;;14.31;69.14
20009;BME280;10165;42.662;23.260;2023-05-23T02:50:30;93965.53;;;14.20;69.53
20009;BME280;10165;42.662;23.260;2023-05-23T02:52:56;93967.06;;;13.84;71.05
20009;BME280;10165;42.662;23.260;2023-05-23T02:55:23;93972.28;;;14.07;70.72
20009;BME280;10165;42.662;23.260;2023-05-23T02:57:50;93974.28;;;14.54;70.05
20009;BME280;10165;42.662;23.260;2023-05-23T03:00:17;93968.53;;;14.52;68.99
20009;BME280;10165;42.662;23.260;2023-05-23T03:02:43;93966.19;;;14.50;69.74
20009;BME280;10165;42.662;23.260;2023-05-23T03:05:10;93967.47;;;14.23;71.36
20009;BME280;10165;42.662;23.260;2023-05-23T03:07:37;93975.47;;;14.16;71.26
20009;BME280;10165;42.662;23.260;2023-05-23T03:10:04;93978.97;;;14.20;71.33
20009;BME280;10165;42.662;23.260;2023-05-23T03:12:31;93983.47;;;14.09;71.19
20009;BME280;10165;42.662;23.260;2023-05-23T03:14:58;93976.88;;;13.36;73.49
20009;BME280;10165;42.662;23.260;2023-05-23T03:17:25;93970.88;;;13.46;75.01
20009;BME280;10165;42.662;23.260;2023-05-23T03:19:52;93975.16;;;13.51;75.56
20009;BME280;10165;42.662;23.260;2023-05-23T03:22:18;93981.97;;;13.78;73.83
20009;BME280;10165;42.662;23.260;2023-05-23T03:24:45;93977.16;;;13.91;73.46
20009;BME280;10165;42.662;23.260;2023-05-23T03:27:12;93982.13;;;14.29;71.93
20009;BME280;10165;42.662;23.260;2023-05-23T03:29:39;93969.84;;;14.31;71.44
20009;BME280;10165;42.662;23.260;2023-05-23T03:32:06;93977.06;;;14.64;71.11
20009;BME280;10165;42.662;23.260;2023-05-23T03:34:33;93978.59;;;14.65;70.39
20009;BME280;10165;42.662;23.260;2023-05-23T03:37:02;93987.88;;;14.68;70.65
20009;BME280;10165;42.662;23.260;2023-05-23T03:39:29;93989.59;;;14.46;70.65
20009;BME280;10165;42.662;23.260;2023-05-23T03:41:56;93993.13;;;14.17;71.24
20009;BME280;10165;42.662;23.260;2023-05-23T03:44:23;94000.13;;;14.65;70.51
20009;BME280;10165;42.662;23.260;2023-05-23T03:46:50;94000.63;;;14.81;69.70
20009;BME280;10165;42.662;23.260;2023-05-23T03:49:16;94001.25;;;14.64;70.28
20009;BME280;10165;42.662;23.260;2023-05-23T03:51:43;93998.53;;;14.20;72.60
20009;BME280;10165;42.662;23.260;2023-05-23T03:54:10;94000.00;;;14.14;72.22
20009;BME280;10165;42.662;23.260;2023-05-23T03:56:36;94006.19;;;14.18;72.02
20009;BME280;10165;42.662;23.260;2023-05-23T03:59:03;94006.56;;;14.17;72.46
20009;BME280;10165;42.662;23.260;2023-05-23T04:01:30;94003.88;;;14.17;72.94
20009;BME280;10165;42.662;23.260;2023-05-23T04:03:56;94004.94;;;14.46;71.96
20009;BME280;10165;42.662;23.260;2023-05-23T04:06:23;94002.63;;;14.44;71.72
20009;BME280;10165;42.662;23.260;2023-05-23T04:08:50;94003.63;;;14.73;70.68
20009;BME280;10165;42.662;23.260;2023-05-23T04:11:16;94004.94;;;14.93;69.48
20009;BME280;10165;42.662;23.260;2023-05-23T04:13:43;94003.31;;;14.81;70.89
20009;BME280;10165;42.662;23.260;2023-05-23T04:16:12;94006.94;;;15.07;70.29
20009;BME280;10165;42.662;23.260;2023-05-23T04:18:39;94005.25;;;14.84;70.14
20009;BME280;10165;42.662;23.260;2023-05-23T04:21:06;94005.16;;;14.70;71.24
20009;BME280;10165;42.662;23.260;2023-05-23T04:23:32;94003.50;;;14.55;72.03
20009;BME280;10165;42.662;23.260;2023-05-23T04:25:59;93993.88;;;14.54;71.78
20009;BME280;10165;42.662;23.260;2023-05-23T04:28:26;93992.19;;;13.99;75.39
20009;BME280;10165;42.662;23.260;2023-05-23T04:30:53;93994.66;;;13.81;77.79
20009;BME280;10165;42.662;23.260;2023-05-23T04:33:21;93990.72;;;14.05;78.70
20009;BME280;10165;42.662;23.260;2023-05-23T04:35:48;93996.16;;;14.49;77.47
20009;BME280;10165;42.662;23.260;2023-05-23T04:38:16;93987.34;;;15.06;75.16
20009;BME280;10165;42.662;23.260;2023-05-23T04:40:43;93994.91;;;14.87;75.37
20009;BME280;10165;42.662;23.260;2023-05-23T04:43:09;93995.38;;;14.11;78.31
20009;BME280;10165;42.662;23.260;2023-05-23T04:45:39;93996.22;;;14.56;76.83
20009;BME280;10165;42.662;23.260;2023-05-23T04:48:08;94000.91;;;14.69;76.24
20009;BME280;10165;42.662;23.260;2023-05-23T04:50:34;94011.53;;;14.52;76.90
20009;BME280;10165;42.662;23.260;2023-05-23T04:53:03;94014.31;;;14.62;76.47
20009;BME280;10165;42.662;23.260;2023-05-23T04:55:30;94013.88;;;14.60;75.87
20009;BME280;10165;42.662;23.260;2023-05-23T04:57:57;94020.34;;;13.78;80.48
20009;BME280;10165;42.662;23.260;2023-05-23T05:00:24;94022.22;;;14.11;79.94
20009;BME280;10165;42.662;23.260;2023-05-23T05:02:52;94023.22;;;14.33;79.42
20009;BME280;10165;42.662;23.260;2023-05-23T05:05:18;94028.56;;;13.93;80.78
20009;BME280;10165;42.662;23.260;2023-05-23T05:07:45;94019.34;;;14.67;76.91
20009;BME280;10165;42.662;23.260;2023-05-23T05:10:12;94021.44;;;14.44;78.41
20009;BME280;10165;42.662;23.260;2023-05-23T05:12:43;94016.22;;;14.21;78.26
20009;BME280;10165;42.662;23.260;2023-05-23T05:15:12;94025.97;;;14.80;77.75
20009;BME280;10165;42.662;23.260;2023-05-23T05:17:39;94027.13;;;14.35;79.63
20009;BME280;10165;42.662;23.260;2023-05-23T05:20:06;94029.47;;;14.07;80.47
20009;BME280;10165;42.662;23.260;2023-05-23T05:22:34;94031.53;;;14.17;79.45
20009;BME280;10165;42.662;23.260;2023-05-23T05:25:02;94023.22;;;14.33;80.13
20009;BME280;10165;42.662;23.260;2023-05-23T05:27:32;94025.38;;;14.57;79.63
20009;BME280;10165;42.662;23.260;2023-05-23T05:29:59;94024.50;;;14.87;77.85
20009;BME280;10165;42.662;23.260;2023-05-23T05:32:30;94023.97;;;15.21;77.44
20009;BME280;10165;42.662;23.260;2023-05-23T05:35:02;94017.09;;;15.31;76.82
20009;BME280;10165;42.662;23.260;2023-05-23T05:37:29;94024.81;;;14.78;78.44
20009;BME280;10165;42.662;23.260;2023-05-23T05:39:56;94031.13;;;15.61;76.53
20009;BME280;10165;42.662;23.260;2023-05-23T05:42:24;94031.72;;;15.37;75.75
20009;BME280;10165;42.662;23.260;2023-05-23T05:44:51;94034.50;;;14.90;77.33
20009;BME280;10165;42.662;23.260;2023-05-23T05:47:17;94032.25;;;15.53;76.65
20009;BME280;10165;42.662;23.260;2023-05-23T05:49:44;94043.78;;;15.50;77.65
20009;BME280;10165;42.662;23.260;2023-05-23T05:52:11;94037.19;;;15.48;77.64
20009;BME280;10165;42.662;23.260;2023-05-23T05:54:37;94045.88;;;15.89;76.68
20009;BME280;10165;42.662;23.260;2023-05-23T05:57:04;94038.13;;;15.76;75.46
20009;BME280;10165;42.662;23.260;2023-05-23T05:59:31;94031.16;;;15.65;77.03
20009;BME280;10165;42.662;23.260;2023-05-23T06:01:58;94034.97;;;15.64;76.51
20009;BME280;10165;42.662;23.260;2023-05-23T06:04:27;94037.13;;;15.37;78.10
20009;BME280;10165;42.662;23.260;2023-05-23T06:06:54;94035.34;;;15.55;78.14
20009;BME280;10165;42.662;23.260;2023-05-23T06:09:21;94034.31;;;15.85;76.21
20009;BME280;10165;42.662;23.260;2023-05-23T06:11:47;94037.88;;;15.38;77.97
20009;BME280;10165;42.662;23.260;2023-05-23T06:14:14;94040.94;;;15.29;78.86
20009;BME280;10165;42.662;23.260;2023-05-23T06:16:41;94035.78;;;15.71;78.26
20009;BME280;10165;42.662;23.260;2023-05-23T06:19:08;94039.63;;;15.67;77.25
20009;BME280;10165;42.662;23.260;2023-05-23T06:21:35;94039.66;;;15.74;79.53
20009;BME280;10165;42.662;23.260;2023-05-23T06:24:02;94047.50;;;16.11;77.84
20009;BME280;10165;42.662;23.260;2023-05-23T06:26:29;94038.25;;;16.12;75.88
20009;BME280;10165;42.662;23.260;2023-05-23T06:28:55;94042.19;;;16.32;74.72
20009;BME280;10165;42.662;23.260;2023-05-23T06:31:22;94043.03;;;16.68;73.31
20009;BME280;10165;42.662;23.260;2023-05-23T06:33:49;94035.34;;;16.84;73.90
20009;BME280;10165;42.662;23.260;2023-05-23T06:36:16;94043.00;;;17.42;71.63
20009;BME280;10165;42.662;23.260;2023-05-23T06:38:43;94039.94;;;17.26;70.50
20009;BME280;10165;42.662;23.260;2023-05-23T06:41:09;94037.22;;;17.40;70.96
20009;BME280;10165;42.662;23.260;2023-05-23T06:43:36;94036.09;;;17.02;71.64
20009;BME280;10165;42.662;23.260;2023-05-23T06:46:03;94036.09;;;17.31;70.56
20009;BME280;10165;42.662;23.260;2023-05-23T06:48:30;94028.72;;;17.66;69.67
20009;BME280;10165;42.662;23.260;2023-05-23T06:50:57;94028.28;;;17.86;68.92
20009;BME280;10165;42.662;23.260;2023-05-23T06:53:23;94020.28;;;16.87;70.42
20009;BME280;10165;42.662;23.260;2023-05-23T06:55:50;94015.22;;;17.45;69.68
20009;BME280;10165;42.662;23.260;2023-05-23T06:58:17;94016.38;;;17.44;70.56
20009;BME280;10165;42.662;23.260;2023-05-23T07:00:43;94022.47;;;17.84;68.42
20009;BME280;10165;42.662;23.260;2023-05-23T07:03:10;94009.44;;;17.50;67.77
20009;BME280;10165;42.662;23.260;2023-05-23T07:05:37;94018.31;;;17.40;70.80
20009;BME280;10165;42.662;23.260;2023-05-23T07:08:06;94017.47;;;17.86;67.64
20009;BME280;10165;42.662;23.260;2023-05-23T07:10:33;94019.06;;;17.65;68.28
20009;BME280;10165;42.662;23.260;2023-05-23T07:13:00;94027.25;;;16.73;67.88
20009;BME280;10165;42.662;23.260;2023-05-23T07:15:27;94014.44;;;17.66;67.58
20009;BME280;10165;42.662;23.260;2023-05-23T07:17:54;94003.41;;;18.19;65.26
20009;BME280;10165;42.662;23.260;2023-05-23T07:20:21;94008.72;;;17.32;68.48
20009;BME280;10165;42.662;23.260;2023-05-23T07:22:48;94004.31;;;17.88;68.32
20009;BME280;10165;42.662;23.260;2023-05-23T07:25:16;94002.03;;;17.79;68.20
20009;BME280;10165;42.662;23.260;2023-05-23T07:27:43;93992.41;;;18.44;67.19
20009;BME280;10165;42.662;23.260;2023-05-23T07:30:10;93992.81;;;18.46;67.34
20009;BME280;10165;42.662;23.260;2023-05-23T07:32:37;93992.94;;;18.28;66.95
20009;BME280;10165;42.662;23.260;2023-05-23T07:35:04;93995.72;;;18.07;66.28
20009;BME280;10165;42.662;23.260;2023-05-23T07:37:31;93994.97;;;18.03;66.38
20009;BME280;10165;42.662;23.260;2023-05-23T07:39:57;93994.78;;;18.38;66.57
20009;BME280;10165;42.662;23.260;2023-05-23T07:42:24;93988.53;;;18.52;66.10
20009;BME280;10165;42.662;23.260;2023-05-23T07:44:51;93988.31;;;18.84;66.11
20009;BME280;10165;42.662;23.260;2023-05-23T07:47:17;93996.38;;;19.35;64.30
20009;BME280;10165;42.662;23.260;2023-05-23T07:49:44;93987.34;;;19.08;63.51
20009;BME280;10165;42.662;23.260;2023-05-23T07:52:12;93989.72;;;19.40;63.11
20009;BME280;10165;42.662;23.260;2023-05-23T07:54:39;93984.84;;;19.24;62.66
20009;BME280;10165;42.662;23.260;2023-05-23T07:57:06;93987.59;;;19.21;62.99
20009;BME280;10165;42.662;23.260;2023-05-23T07:59:32;93987.59;;;19.21;64.38
20009;BME280;10165;42.662;23.260;2023-05-23T08:01:59;93981.53;;;19.50;62.22
20009;BME280;10165;42.662;23.260;2023-05-23T08:04:27;93984.66;;;19.45;62.55
20009;BME280;10165;42.662;23.260;2023-05-23T08:06:54;93973.66;;;19.22;62.87
20009;BME280;10165;42.662;23.260;2023-05-23T08:09:24;93968.25;;;19.60;63.14
20009;BME280;10165;42.662;23.260;2023-05-23T08:11:50;93978.25;;;19.66;60.52
20009;BME280;10165;42.662;23.260;2023-05-23T08:14:17;93978.09;;;19.46;60.70
20009;BME280;10165;42.662;23.260;2023-05-23T08:16:44;93976.84;;;19.51;62.33
20009;BME280;10165;42.662;23.260;2023-05-23T08:19:11;93974.22;;;19.78;61.11
20009;BME280;10165;42.662;23.260;2023-05-23T08:21:38;93970.81;;;19.70;61.76
20009;BME280;10165;42.662;23.260;2023-05-23T08:24:05;93981.28;;;19.34;61.58
20009;BME280;10165;42.662;23.260;2023-05-23T08:26:32;93972.94;;;19.55;63.52
20009;BME280;10165;42.662;23.260;2023-05-23T08:29:02;93987.78;;;19.40;63.91
20009;BME280;10165;42.662;23.260;2023-05-23T08:31:30;93975.56;;;19.96;62.25
20009;BME280;10165;42.662;23.260;2023-05-23T08:33:57;93977.34;;;19.76;61.87
20009;BME280;10165;42.662;23.260;2023-05-23T08:36:24;93970.34;;;20.09;60.96
20009;BME280;10165;42.662;23.260;2023-05-23T08:38:52;93973.22;;;19.98;61.76
20009;BME280;10165;42.662;23.260;2023-05-23T08:41:21;93965.56;;;19.90;62.11
20009;BME280;10165;42.662;23.260;2023-05-23T08:43:48;93965.50;;;19.93;61.47
20009;BME280;10165;42.662;23.260;2023-05-23T08:46:15;93967.53;;;20.16;61.55
20009;BME280;10165;42.662;23.260;2023-05-23T08:48:43;93963.25;;;20.49;61.06
20009;BME280;10165;42.662;23.260;2023-05-23T08:51:14;93977.41;;;20.33;57.24
20009;BME280;10165;42.662;23.260;2023-05-23T08:53:43;93963.94;;;19.96;57.23
20009;BME280;10165;42.662;23.260;2023-05-23T08:56:15;93961.09;;;20.37;56.72
20009;BME280;10165;42.662;23.260;2023-05-23T08:58:42;93968.75;;;20.15;57.18
20009;BME280;10165;42.662;23.260;2023-05-23T09:01:09;93961.53;;;20.59;56.93
20009;BME280;10165;42.662;23.260;2023-05-23T09:03:36;93958.31;;;20.90;54.92
20009;BME280;10165;42.662;23.260;2023-05-23T09:06:07;93960.50;;;20.99;52.36
20009;BME280;10165;42.662;23.260;2023-05-23T09:08:34;93961.09;;;20.37;54.82
20009;BME280;10165;42.662;23.260;2023-05-23T09:11:03;93956.06;;;20.35;55.17
20009;BME280;10165;42.662;23.260;2023-05-23T09:13:31;93968.50;;;20.60;54.19
20009;BME280;10165;42.662;23.260;2023-05-23T09:18:26;93959.63;;;21.06;52.83
20009;BME280;10165;42.662;23.260;2023-05-23T09:20:52;93954.38;;;20.95;50.53
20009;BME280;10165;42.662;23.260;2023-05-23T09:23:19;93949.66;;;21.22;50.82
20009;BME280;10165;42.662;23.260;2023-05-23T09:25:46;93949.97;;;21.48;49.14
20009;BME280;10165;42.662;23.260;2023-05-23T09:28:13;93944.25;;;21.42;49.86
20009;BME280;10165;42.662;23.260;2023-05-23T09:30:40;93958.78;;;20.05;47.98
20009;BME280;10165;42.662;23.260;2023-05-23T09:33:07;93951.56;;;20.52;47.69
20009;BME280;10165;42.662;23.260;2023-05-23T09:35:34;93941.41;;;21.49;47.67
20009;BME280;10165;42.662;23.260;2023-05-23T09:38:00;93950.09;;;21.40;45.67
20009;BME280;10165;42.662;23.260;2023-05-23T09:40:29;93942.41;;;21.16;45.38
20009;BME280;10165;42.662;23.260;2023-05-23T09:43:02;93938.00;;;21.45;47.06
20009;BME280;10165;42.662;23.260;2023-05-23T09:45:30;93938.56;;;21.13;44.79
20009;BME280;10165;42.662;23.260;2023-05-23T09:47:57;93941.88;;;21.44;44.23
20009;BME280;10165;42.662;23.260;2023-05-23T09:50:30;93947.88;;;21.12;42.20
20009;BME280;10165;42.662;23.260;2023-05-23T09:52:58;93925.75;;;21.96;42.81
20009;BME280;10165;42.662;23.260;2023-05-23T09:55:26;93926.44;;;21.61;43.91
20009;BME280;10165;42.662;23.260;2023-05-23T09:57:53;93925.38;;;22.30;43.02
20009;BME280;10165;42.662;23.260;2023-05-23T10:00:22;93927.38;;;21.90;42.67
20009;BME280;10165;42.662;23.260;2023-05-23T10:03:10;93923.28;;;22.02;40.96
20009;BME280;10165;42.662;23.260;2023-05-23T10:05:50;93926.31;;;22.39;40.25
20009;BME280;10165;42.662;23.260;2023-05-23T10:13:28;93928.22;;;22.07;41.56
20009;BME280;10165;42.662;23.260;2023-05-23T10:16:29;93928.50;;;22.80;40.39
20009;BME280;10165;42.662;23.260;2023-05-23T10:19:05;93921.06;;;22.49;38.66
20009;BME280;10165;42.662;23.260;2023-05-23T10:21:39;93919.72;;;22.89;40.39
20009;BME280;10165;42.662;23.260;2023-05-23T10:24:12;93912.56;;;22.63;38.96
20009;BME280;10165;42.662;23.260;2023-05-23T10:26:39;93914.72;;;22.88;40.26
20009;BME280;10165;42.662;23.260;2023-05-23T10:29:06;93909.22;;;23.20;37.63
20009;BME280;10165;42.662;23.260;2023-05-23T10:31:34;93915.03;;;23.06;37.42
20009;BME280;10165;42.662;23.260;2023-05-23T10:36:44;93913.50;;;22.04;39.33
20009;BME280;10165;42.662;23.260;2023-05-23T10:42:14;93902.84;;;22.62;37.13
20009;BME280;10165;42.662;23.260;2023-05-23T10:44:42;93908.09;;;22.72;38.77
20009;BME280;10165;42.662;23.260;2023-05-23T10:47:09;93910.31;;;22.25;37.64
20009;BME280;10165;42.662;23.260;2023-05-23T10:49:40;93897.09;;;22.76;38.38
20009;BME280;10165;42.662;23.260;2023-05-23T10:52:09;93903.63;;;22.30;36.79
20009;BME280;10165;42.662;23.260;2023-05-23T10:54:47;93902.44;;;21.75;38.38
20009;BME280;10165;42.662;23.260;2023-05-23T10:57:16;93892.66;;;22.50;39.96
20009;BME280;10165;42.662;23.260;2023-05-23T10:59:44;93886.00;;;22.51;38.76
20009;BME280;10165;42.662;23.260;2023-05-23T11:02:14;93883.63;;;22.85;38.34
20009;BME280;10165;42.662;23.260;2023-05-23T11:04:41;93890.13;;;22.75;37.56
20009;BME280;10165;42.662;23.260;2023-05-23T11:07:28;93900.56;;;22.44;36.88
20009;BME280;10165;42.662;23.260;2023-05-23T11:10:07;93891.97;;;22.94;37.27
20009;BME280;10165;42.662;23.260;2023-05-23T11:12:39;93896.66;;;22.94;35.15
20009;BME280;10165;42.662;23.260;2023-05-23T11:17:53;93879.06;;;23.56;35.27
20009;BME280;10165;42.662;23.260;2023-05-23T11:20:21;93877.88;;;23.57;35.53
20009;BME280;10165;42.662;23.260;2023-05-23T11:23:06;93877.69;;;22.90;36.00
20009;BME280;10165;42.662;23.260;2023-05-23T11:28:11;93878.00;;;22.44;37.97
20009;BME280;10165;42.662;23.260;2023-05-23T11:30:38;93870.00;;;23.01;36.89
20009;BME280;10165;42.662;23.260;2023-05-23T11:33:11;93873.88;;;22.71;36.16
20009;BME280;10165;42.662;23.260;2023-05-23T11:35:46;93865.94;;;22.77;36.29
20009;BME280;10165;42.662;23.260;2023-05-23T11:38:14;93864.00;;;23.51;35.83
20009;BME280;10165;42.662;23.260;2023-05-23T11:40:47;93857.41;;;23.77;36.34
20009;BME280;10165;42.662;23.260;2023-05-23T11:43:16;93853.91;;;23.64;36.00
20009;BME280;10165;42.662;23.260;2023-05-23T11:45:43;93863.91;;;23.26;35.67
20009;BME280;10165;42.662;23.260;2023-05-23T11:48:14;93857.84;;;23.89;36.80
20009;BME280;10165;42.662;23.260;2023-05-23T11:50:50;93855.41;;;23.53;35.62
20009;BME280;10165;42.662;23.260;2023-05-23T11:53:18;93866.50;;;23.01;35.92
20009;BME280;10165;42.662;23.260;2023-05-23T11:55:49;93865.44;;;23.56;36.02
20009;BME280;10165;42.662;23.260;2023-05-23T11:58:16;93847.16;;;23.94;36.16
20009;BME280;10165;42.662;23.260;2023-05-23T12:00:44;93849.16;;;24.19;33.97
20009;BME280;10165;42.662;23.260;2023-05-23T12:03:11;93848.69;;;23.83;34.16
20009;BME280;10165;42.662;23.260;2023-05-23T12:05:42;93846.94;;;23.76;34.47
20009;BME280;10165;42.662;23.260;2023-05-23T12:08:11;93848.13;;;23.75;34.71
20009;BME280;10165;42.662;23.260;2023-05-23T12:10:48;93853.41;;;23.24;34.70
20009;BME280;10165;42.662;23.260;2023-05-23T12:13:15;93840.13;;;23.26;35.41
20009;BME280;10165;42.662;23.260;2023-05-23T12:15:41;93839.31;;;23.42;34.86
20009;BME280;10165;42.662;23.260;2023-05-23T12:18:08;93837.53;;;22.78;35.10
20009;BME280;10165;42.662;23.260;2023-05-23T12:20:35;93829.03;;;23.75;35.12
20009;BME280;10165;42.662;23.260;2023-05-23T12:23:07;93830.06;;;23.23;35.09
20009;BME280;10165;42.662;23.260;2023-05-23T12:25:39;93831.47;;;23.15;35.55
20009;BME280;10165;42.662;23.260;2023-05-23T12:28:08;93820.06;;;23.62;34.97
20009;BME280;10165;42.662;23.260;2023-05-23T12:30:42;93817.59;;;23.39;34.18
20009;BME280;10165;42.662;23.260;2023-05-23T12:33:09;93818.97;;;23.18;35.25
20009;BME280;10165;42.662;23.260;2023-05-23T12:35:37;93812.09;;;23.55;34.62
20009;BME280;10165;42.662;23.260;2023-05-23T12:38:08;93810.66;;;23.50;34.29
20009;BME280;10165;42.662;23.260;2023-05-23T12:40:35;93805.25;;;24.01;34.17
20009;BME280;10165;42.662;23.260;2023-05-23T12:43:01;93818.63;;;23.45;34.22
20009;BME280;10165;42.662;23.260;2023-05-23T12:45:33;93814.38;;;23.27;34.11
20009;BME280;10165;42.662;23.260;2023-05-23T12:48:02;93804.81;;;23.64;34.90
20009;BME280;10165;42.662;23.260;2023-05-23T12:50:29;93807.22;;;23.88;34.63
20009;BME280;10165;42.662;23.260;2023-05-23T12:52:57;93806.03;;;24.26;33.42
20009;BME280;10165;42.662;23.260;2023-05-23T12:55:24;93800.91;;;23.08;34.44
20009;BME280;10165;42.662;23.260;2023-05-23T12:57:50;93792.91;;;24.09;37.26
20009;BME280;10165;42.662;23.260;2023-05-23T13:00:17;93793.69;;;23.97;34.81
20009;BME280;10165;42.662;23.260;2023-05-23T13:02:45;93792.81;;;24.12;33.69
20009;BME280;10165;42.662;23.260;2023-05-23T13:05:12;93801.88;;;23.30;33.86
20009;BME280;10165;42.662;23.260;2023-05-23T13:07:38;93789.00;;;24.10;34.52
20009;BME280;10165;42.662;23.260;2023-05-23T13:10:05;93794.78;;;23.99;33.75
20009;BME280;10165;42.662;23.260;2023-05-23T13:12:32;93786.41;;;24.66;32.52
20009;BME280;10165;42.662;23.260;2023-05-23T13:15:00;93785.28;;;24.29;31.99
20009;BME280;10165;42.662;23.260;2023-05-23T13:17:27;93799.44;;;24.11;32.30
20009;BME280;10165;42.662;23.260;2023-05-23T13:19:54;93780.13;;;24.31;32.22
20009;BME280;10165;42.662;23.260;2023-05-23T13:22:20;93790.66;;;24.67;30.47
20009;BME280;10165;42.662;23.260;2023-05-23T13:24:47;93791.38;;;24.80;30.62